Terminal Aerodrome Forecast
Issued by NWS Memphis, TN

Home | Current Version | Previous Version | Text Only | Print | Product List | Glossary On
Versions: 1 2 3 4 5 6 7 8 9 10 11 12 13 14 15 16 17 18 19 20 21 22 23 24 25 26 27 28 29 30 31 32 33 34
770
FTUS44 KMEG 290525
TAFMEM
TAF
KMEM 290525Z 2906/3006 19004KT P6SM SKC
      TEMPO 2910/2914 5SM BR SCT015
     FM291400 24004KT P6SM BKN020
     FM291600 25006KT P6SM BKN035
     FM292100 33007KT P6SM SCT050
     FM300100 VRB02KT P6SM BKN060=

USA.gov is the U.S. government's official web portal to all federal, state and local government web resources and services.